createdAt,value
2017-02-28T00:00:46.198Z,45.1
2017-02-28T00:03:18.691Z,45
2017-02-28T00:05:51.192Z,45.1
2017-02-28T00:08:23.676Z,45
2017-02-28T00:10:56.158Z,45
2017-02-28T00:13:28.638Z,45
2017-02-28T00:16:01.127Z,45.1
2017-02-28T00:18:34.038Z,45
2017-02-28T00:21:06.963Z,45
2017-02-28T00:23:39.454Z,45
2017-02-28T00:26:11.943Z,45
2017-02-28T00:28:44.848Z,45
2017-02-28T00:31:17.782Z,45
2017-02-28T00:33:50.271Z,45
2017-02-28T00:36:22.765Z,45
2017-02-28T00:38:55.670Z,45
2017-02-28T00:41:28.154Z,45
2017-02-28T00:44:01.072Z,45
2017-02-28T00:46:33.579Z,45
2017-02-28T00:49:06.057Z,45
2017-02-28T00:51:38.552Z,45
2017-02-28T00:54:11.034Z,45
2017-02-28T00:56:43.529Z,44.9
2017-02-28T00:59:16.008Z,45
2017-02-28T01:01:48.504Z,44.9
2017-02-28T01:04:20.988Z,45
2017-02-28T01:06:53.784Z,45
2017-02-28T01:09:26.287Z,45
2017-02-28T01:11:58.769Z,44.9
2017-02-28T01:14:31.265Z,44.9
2017-02-28T01:17:03.750Z,44.9
2017-02-28T01:19:36.244Z,44.9
2017-02-28T01:22:08.731Z,44.9
2017-02-28T01:24:41.255Z,44.9
2017-02-28T01:27:13.736Z,44.9
2017-02-28T01:29:46.241Z,45
2017-02-28T01:32:18.742Z,44.9
2017-02-28T01:34:51.245Z,45
2017-02-28T01:37:23.722Z,44.9
2017-02-28T01:39:56.225Z,44.9
2017-02-28T01:42:28.691Z,44.9
2017-02-28T01:45:01.177Z,45
2017-02-28T01:47:33.669Z,44.9
2017-02-28T01:50:06.180Z,44.9
2017-02-28T01:52:38.652Z,44.9
2017-02-28T01:55:11.133Z,44.9
2017-02-28T01:57:43.610Z,44.9
2017-02-28T02:00:16.096Z,44.9
2017-02-28T02:02:48.606Z,44.9
2017-02-28T02:05:21.938Z,44.9
2017-02-28T02:07:54.425Z,44.9
2017-02-28T02:10:26.888Z,44.9
2017-02-28T02:12:59.371Z,44.9
2017-02-28T02:15:32.283Z,44.9
2017-02-28T02:18:04.786Z,44.9
2017-02-28T02:20:37.249Z,44.9
2017-02-28T02:23:09.745Z,44.9
2017-02-28T02:25:42.656Z,44.9
2017-02-28T02:28:15.581Z,44.9
2017-02-28T02:30:48.073Z,44.9
2017-02-28T02:33:21.005Z,44.9
2017-02-28T02:35:54.343Z,44.9
2017-02-28T02:38:26.849Z,44.8
2017-02-28T02:40:59.340Z,44.8
2017-02-28T02:43:31.825Z,44.8
2017-02-28T02:46:04.313Z,44.8
2017-02-28T02:48:36.804Z,44.8
2017-02-28T02:51:09.767Z,44.8
2017-02-28T02:53:42.230Z,44.7
2017-02-28T02:56:14.709Z,44.8
2017-02-28T02:58:47.224Z,44.8
2017-02-28T03:01:19.747Z,44.8
2017-02-28T03:03:52.208Z,44.8
2017-02-28T03:06:24.716Z,44.8
2017-02-28T03:08:57.200Z,44.7
2017-02-28T03:11:29.687Z,44.8
2017-02-28T03:14:02.609Z,44.7
2017-02-28T03:16:35.098Z,44.6
2017-02-28T03:19:08.014Z,44.6
2017-02-28T03:21:40.495Z,44.6
2017-02-28T03:24:13.002Z,44.7
2017-02-28T03:26:45.914Z,44.7
2017-02-28T03:29:18.822Z,44.6
2017-02-28T03:31:51.740Z,44.7
2017-02-28T03:34:24.228Z,44.6
2017-02-28T03:36:56.713Z,44.6
2017-02-28T03:39:29.192Z,44.6
2017-02-28T03:42:01.677Z,44.6
2017-02-28T03:44:34.593Z,44.6
2017-02-28T03:47:07.080Z,44.6
2017-02-28T03:49:39.558Z,44.6
2017-02-28T03:52:12.052Z,44.6
2017-02-28T03:54:44.984Z,44.6
2017-02-28T03:57:18.545Z,44.6
2017-02-28T03:59:51.249Z,44.5
2017-02-28T04:02:23.722Z,44.6
2017-02-28T04:04:56.211Z,44.5
2017-02-28T04:07:28.703Z,44.5
2017-02-28T04:10:01.613Z,44.6
2017-02-28T04:12:34.100Z,44.5
2017-02-28T04:15:06.602Z,44.6
2017-02-28T04:17:39.515Z,44.5
2017-02-28T04:20:12.839Z,44.6
2017-02-28T04:22:45.347Z,44.5
2017-02-28T04:25:17.820Z,44.5
2017-02-28T04:27:50.343Z,44.5
2017-02-28T04:30:23.233Z,44.5
2017-02-28T04:32:56.167Z,44.5
2017-02-28T04:35:29.492Z,44.5
2017-02-28T04:38:01.975Z,44.5
2017-02-28T04:40:34.472Z,44.5
2017-02-28T04:43:06.945Z,44.5
2017-02-28T04:45:39.448Z,44.5
2017-02-28T04:48:11.946Z,44.5
2017-02-28T04:50:44.428Z,44.5
2017-02-28T04:53:16.936Z,44.5
2017-02-28T04:55:49.428Z,44.5
2017-02-28T04:58:21.935Z,44.4
2017-02-28T05:00:54.440Z,44.4
2017-02-28T05:03:26.941Z,44.4
2017-02-28T05:05:59.849Z,44.4
2017-02-28T05:08:32.353Z,44.4
2017-02-28T05:11:04.828Z,44.4
2017-02-28T05:13:37.319Z,44.4
2017-02-28T05:16:09.835Z,44.4
2017-02-28T05:18:42.315Z,44.4
2017-02-28T05:21:14.798Z,44.4
2017-02-28T05:23:47.294Z,44.4
2017-02-28T05:26:19.790Z,44.4
2017-02-28T05:28:52.744Z,44.4
2017-02-28T05:31:25.245Z,44.4
2017-02-28T05:33:57.736Z,44.5
2017-02-28T05:36:30.277Z,44.4
2017-02-28T05:39:03.195Z,44.5
2017-02-28T05:41:36.131Z,44.5
2017-02-28T05:44:08.634Z,44.5
2017-02-28T05:46:41.520Z,44.5
2017-02-28T05:49:14.005Z,44.4
2017-02-28T05:51:46.945Z,44.5
2017-02-28T05:54:19.877Z,44.7
2017-02-28T05:56:53.214Z,44.8
2017-02-28T05:59:25.718Z,44.7
2017-02-28T06:01:58.206Z,44.8
2017-02-28T06:04:30.694Z,44.8
2017-02-28T06:07:03.185Z,44.7
2017-02-28T06:09:35.662Z,44.6
2017-02-28T06:12:08.577Z,43.6
2017-02-28T06:14:41.068Z,42.8
2017-02-28T06:17:13.534Z,42.7
2017-02-28T06:19:46.052Z,43.1
2017-02-28T06:22:18.999Z,43.6
2017-02-28T06:24:51.497Z,43.8
2017-02-28T06:27:24.002Z,43.9
2017-02-28T06:29:56.958Z,44.1
2017-02-28T06:32:29.449Z,44.1
2017-02-28T06:35:02.797Z,44.2
2017-02-28T06:37:35.321Z,44.3
2017-02-28T06:40:07.807Z,44.3
2017-02-28T06:42:41.091Z,44.4
2017-02-28T06:45:22.628Z,44.4
2017-02-28T06:47:55.575Z,44.4
2017-02-28T06:50:28.081Z,44.5
2017-02-28T06:53:00.584Z,44.6
2017-02-28T06:55:33.493Z,44.6
2017-02-28T06:58:05.999Z,44.7
2017-02-28T07:00:38.906Z,44.7
2017-02-28T07:03:11.399Z,44.7
2017-02-28T07:05:43.880Z,44.7
2017-02-28T07:08:16.392Z,44.8
2017-02-28T07:10:48.900Z,44.7
2017-02-28T07:13:21.391Z,44.7
2017-02-28T07:15:53.873Z,44.7
2017-02-28T07:18:26.351Z,44.8
2017-02-28T07:20:59.272Z,44.8
2017-02-28T07:23:31.754Z,44.8
2017-02-28T07:26:04.273Z,44.8
2017-02-28T07:28:37.166Z,44.8
2017-02-28T07:31:09.638Z,44.8
2017-02-28T07:33:42.116Z,44.9
2017-02-28T07:36:14.594Z,44.9
2017-02-28T07:38:47.076Z,44.9
2017-02-28T07:41:19.553Z,44.9
2017-02-28T07:43:52.044Z,44.8
2017-02-28T07:46:24.535Z,44.8
2017-02-28T07:48:57.460Z,44.8
2017-02-28T07:51:31.249Z,44.8
2017-02-28T07:54:03.726Z,44.8
2017-02-28T07:56:36.212Z,44.7
2017-02-28T07:59:08.744Z,44.7
2017-02-28T08:01:41.251Z,44.7
2017-02-28T08:04:13.740Z,44.7
2017-02-28T08:06:46.655Z,44.7
2017-02-28T08:09:19.152Z,44.7
2017-02-28T08:11:51.655Z,44.7
2017-02-28T08:14:24.157Z,44.7
2017-02-28T08:16:57.057Z,44.6
2017-02-28T08:19:29.552Z,44.6
2017-02-28T08:22:02.037Z,44.7
2017-02-28T08:24:34.530Z,44.7
2017-02-28T08:27:06.998Z,44.7
2017-02-28T08:29:39.479Z,44.7
2017-02-28T08:32:11.971Z,44.7
2017-02-28T08:34:44.893Z,44.7
2017-02-28T08:37:17.381Z,44.6
2017-02-28T08:39:49.912Z,44.7
2017-02-28T08:42:22.848Z,44.6
2017-02-28T08:44:55.991Z,44.7
2017-02-28T08:47:28.468Z,44.7
2017-02-28T08:50:00.963Z,44.7
2017-02-28T08:52:33.453Z,44.7
2017-02-28T08:55:05.987Z,44.7
2017-02-28T08:57:38.487Z,44.7
2017-02-28T09:00:10.993Z,44.7
2017-02-28T09:02:43.486Z,44.7
2017-02-28T09:05:15.973Z,44.7
2017-02-28T09:07:48.676Z,44.7
2017-02-28T09:10:21.187Z,44.7
2017-02-28T09:12:53.709Z,44.7
2017-02-28T09:15:26.619Z,44.7
2017-02-28T09:17:59.125Z,44.7
2017-02-28T09:20:31.605Z,44.7
2017-02-28T09:23:04.524Z,44.7
2017-02-28T09:25:37.017Z,44.8
2017-02-28T09:28:09.487Z,44.9
2017-02-28T09:30:42.001Z,44.8
2017-02-28T09:33:14.475Z,45.1
2017-02-28T09:35:46.981Z,44.8
2017-02-28T09:38:19.491Z,43.9
2017-02-28T09:40:51.984Z,44.1
2017-02-28T09:43:24.916Z,44.7
2017-02-28T09:45:57.411Z,45.1
2017-02-28T09:48:30.323Z,45.5
2017-02-28T09:51:02.815Z,46
2017-02-28T09:53:35.290Z,46.4
2017-02-28T09:56:07.798Z,46.4
2017-02-28T09:58:40.283Z,46.4
2017-02-28T10:01:12.765Z,46.4
2017-02-28T10:03:45.254Z,46.4
2017-02-28T10:06:17.739Z,46.4
2017-02-28T10:08:50.228Z,46.6
2017-02-28T10:11:22.724Z,46.7
2017-02-28T10:13:55.212Z,46.9
2017-02-28T10:16:27.705Z,46.9
2017-02-28T10:19:00.184Z,47.1
2017-02-28T10:21:33.088Z,47.4
2017-02-28T10:24:05.610Z,48.1
2017-02-28T10:26:38.108Z,47.1
2017-02-28T10:29:11.064Z,45.7
2017-02-28T10:31:43.558Z,44.1
2017-02-28T10:34:16.036Z,43
2017-02-28T10:36:48.946Z,42.5
2017-02-28T10:39:21.444Z,41.3
2017-02-28T10:41:53.942Z,40.9
2017-02-28T10:44:26.450Z,41.4
2017-02-28T10:46:59.412Z,39.9
2017-02-28T10:49:31.912Z,39.6
2017-02-28T10:52:04.403Z,39.9
2017-02-28T10:54:36.879Z,41.9
2017-02-28T10:57:09.377Z,43.1
2017-02-28T10:59:41.870Z,43.4
2017-02-28T11:02:14.759Z,43.6
2017-02-28T11:04:47.254Z,43.8
2017-02-28T11:07:19.731Z,44
2017-02-28T11:09:52.233Z,44.1
2017-02-28T11:12:25.130Z,44.3
2017-02-28T11:14:57.631Z,44.4
2017-02-28T11:17:30.108Z,44.5
2017-02-28T11:20:03.046Z,44.5
2017-02-28T11:22:35.531Z,44.6
2017-02-28T11:25:08.036Z,44.7
2017-02-28T11:27:40.533Z,44.8
2017-02-28T11:30:13.033Z,44.8
2017-02-28T11:32:45.532Z,44.8
2017-02-28T11:35:18.027Z,44.8
2017-02-28T11:37:50.508Z,44.9
2017-02-28T11:40:23.032Z,44.9
2017-02-28T11:42:55.527Z,44.9
2017-02-28T11:45:28.034Z,44.8
2017-02-28T11:48:00.546Z,44.8
2017-02-28T11:50:33.071Z,44.8
2017-02-28T11:53:05.556Z,44.8
2017-02-28T11:55:38.051Z,44.8
2017-02-28T11:58:10.518Z,44.8
2017-02-28T12:00:43.012Z,44.8
2017-02-28T12:03:15.531Z,44.9
2017-02-28T12:05:48.011Z,44.9
2017-02-28T12:08:20.541Z,44.7
2017-02-28T12:10:53.032Z,44.7
2017-02-28T12:13:25.536Z,44.7
2017-02-28T12:15:58.034Z,44.7
2017-02-28T12:18:30.533Z,44.7
2017-02-28T12:21:03.037Z,44.8
2017-02-28T12:23:35.518Z,44.7
2017-02-28T12:26:08.038Z,44.8
2017-02-28T12:28:40.958Z,44.7
2017-02-28T12:31:13.444Z,44.7
2017-02-28T12:33:45.953Z,44.8
2017-02-28T12:36:18.458Z,44.7
2017-02-28T12:38:50.961Z,44.7
2017-02-28T12:41:23.444Z,44.7
2017-02-28T12:43:55.972Z,44.8
2017-02-28T12:46:28.468Z,44.7
2017-02-28T12:49:00.978Z,44.7
2017-02-28T12:51:33.469Z,44.8
2017-02-28T12:54:05.951Z,44.8
2017-02-28T12:56:38.639Z,44.8
2017-02-28T12:59:11.142Z,44.8
2017-02-28T13:01:43.644Z,44.8
2017-02-28T13:04:16.556Z,44.8
2017-02-28T13:06:49.060Z,44.8
2017-02-28T13:09:21.533Z,44.8
2017-02-28T13:11:54.034Z,44.8
2017-02-28T13:14:26.541Z,44.8
2017-02-28T13:16:59.020Z,42
2017-02-28T13:19:31.520Z,39.3
2017-02-28T13:22:03.994Z,38.8
2017-02-28T13:24:36.509Z,36.7
2017-02-28T13:27:09.012Z,37.2
2017-02-28T13:29:41.517Z,37.1
2017-02-28T13:32:13.994Z,37.7
2017-02-28T13:34:46.508Z,37.2
2017-02-28T13:37:18.988Z,36.9
2017-02-28T13:39:51.481Z,37.5
2017-02-28T13:42:23.962Z,36.3
2017-02-28T13:44:56.454Z,36.5
2017-02-28T13:47:28.958Z,37.7
2017-02-28T13:50:01.460Z,37
2017-02-28T13:52:33.952Z,35.7
2017-02-28T13:55:06.444Z,35.3
2017-02-28T13:57:38.924Z,34.1
2017-02-28T14:00:11.421Z,35.1
2017-02-28T14:02:43.899Z,37
2017-02-28T14:05:16.407Z,35.4
2017-02-28T14:07:48.904Z,35
2017-02-28T14:10:21.417Z,35.8
2017-02-28T14:12:53.895Z,35.3
2017-02-28T14:15:26.820Z,35.1
2017-02-28T14:17:59.323Z,34.8
2017-02-28T14:20:31.837Z,34.8
2017-02-28T14:23:04.295Z,37.3
2017-02-28T14:25:37.638Z,37.2
2017-02-28T14:28:10.148Z,37.4
2017-02-28T14:30:42.663Z,37.8
2017-02-28T14:33:15.148Z,36.5
2017-02-28T14:35:47.654Z,37.1
2017-02-28T14:38:20.163Z,36.4
2017-02-28T14:40:52.670Z,36.3
2017-02-28T14:43:25.150Z,36.5
2017-02-28T14:45:57.647Z,37.3
2017-02-28T14:48:30.139Z,37.2
2017-02-28T14:51:02.642Z,37.6
2017-02-28T14:53:35.130Z,37.5
2017-02-28T14:56:07.634Z,37.5
2017-02-28T14:58:40.120Z,37.1
2017-02-28T15:01:12.618Z,37.2
2017-02-28T15:03:45.527Z,36.4
2017-02-28T15:06:18.059Z,35.5
2017-02-28T15:08:50.554Z,35.1
2017-02-28T15:11:23.060Z,35.4
2017-02-28T15:13:55.968Z,34.9
2017-02-28T15:16:28.490Z,35.3
2017-02-28T15:19:00.987Z,34.6
2017-02-28T15:21:33.480Z,34.8
2017-02-28T15:24:06.387Z,32.7
2017-02-28T15:26:38.858Z,34.1
2017-02-28T15:29:11.832Z,35.1
2017-02-28T15:31:44.325Z,35.8
2017-02-28T15:34:16.816Z,36.2
2017-02-28T15:36:49.291Z,36.4
2017-02-28T15:39:21.772Z,36.5
2017-02-28T15:41:54.697Z,36.7
2017-02-28T15:44:27.179Z,37.1
2017-02-28T15:46:59.673Z,37.4
2017-02-28T15:49:32.169Z,37.5
2017-02-28T15:52:04.728Z,37.7
2017-02-28T15:54:37.239Z,37.8
2017-02-28T15:57:10.173Z,38
2017-02-28T15:59:42.660Z,38.2
2017-02-28T16:02:15.150Z,38.3
2017-02-28T16:04:47.646Z,38.5
2017-02-28T16:07:20.134Z,38.6
2017-02-28T16:09:53.258Z,38.7
2017-02-28T16:12:25.748Z,38.8
2017-02-28T16:14:58.235Z,38.9
2017-02-28T16:17:30.755Z,39
2017-02-28T16:20:03.263Z,39.1
2017-02-28T16:22:35.747Z,39.2
2017-02-28T16:25:08.253Z,39.2
2017-02-28T16:27:40.745Z,39.3
2017-02-28T16:30:13.246Z,39.4
2017-02-28T16:32:45.725Z,39.4
2017-02-28T16:35:18.212Z,39.6
2017-02-28T16:37:51.149Z,39.7
2017-02-28T16:40:23.638Z,39.7
2017-02-28T16:42:56.555Z,39.7
2017-02-28T16:45:29.045Z,39.8
2017-02-28T16:48:01.550Z,39.9
2017-02-28T16:50:34.273Z,40.5
2017-02-28T16:53:07.175Z,40.6
2017-02-28T16:55:40.123Z,40.2
2017-02-28T16:58:12.605Z,40.1
2017-02-28T17:00:45.124Z,40.1
2017-02-28T17:03:18.034Z,41.1
2017-02-28T17:05:50.550Z,40.5
2017-02-28T17:08:23.040Z,40.2
2017-02-28T17:10:55.523Z,40.2
2017-02-28T17:13:28.432Z,40.3
2017-02-28T17:16:00.923Z,40.3
2017-02-28T17:18:33.388Z,40.4
2017-02-28T17:21:05.892Z,40.5
2017-02-28T17:23:38.390Z,40.5
2017-02-28T17:26:10.886Z,40.5
2017-02-28T17:28:43.365Z,40.7
2017-02-28T17:31:16.276Z,40.8
2017-02-28T17:33:48.776Z,40.9
2017-02-28T17:36:21.257Z,41
2017-02-28T17:38:53.768Z,41.1
2017-02-28T17:41:26.284Z,41.1
2017-02-28T17:43:58.789Z,41.2
2017-02-28T17:46:31.277Z,41.3
2017-02-28T17:49:03.784Z,41.5
2017-02-28T17:51:36.266Z,41.6
2017-02-28T17:54:08.749Z,41.5
2017-02-28T17:56:41.246Z,41.6
2017-02-28T17:59:13.720Z,41.5
2017-02-28T18:01:46.205Z,41.5
2017-02-28T18:04:18.701Z,41.6
2017-02-28T18:06:51.183Z,41.6
2017-02-28T18:09:23.680Z,41.7
2017-02-28T18:11:56.617Z,41.7
2017-02-28T18:14:29.107Z,41.5
2017-02-28T18:17:01.621Z,41.4
2017-02-28T18:19:34.548Z,41.3
2017-02-28T18:22:07.052Z,41.3
2017-02-28T18:24:39.527Z,41.1
2017-02-28T18:27:12.023Z,40.9
2017-02-28T18:29:44.519Z,40.9
2017-02-28T18:32:17.008Z,40.9
2017-02-28T18:34:49.935Z,40.7
2017-02-28T18:37:22.421Z,40.6
2017-02-28T18:39:54.907Z,40.4
2017-02-28T18:42:27.411Z,40.5
2017-02-28T18:44:59.886Z,40.4
2017-02-28T18:47:32.393Z,40.4
2017-02-28T18:50:04.878Z,40.4
2017-02-28T18:52:37.786Z,40.4
2017-02-28T18:55:10.297Z,40.2
2017-02-28T18:57:42.785Z,40.2
2017-02-28T19:00:15.277Z,40.2
2017-02-28T19:02:47.757Z,40.2
2017-02-28T19:05:20.245Z,40.2
2017-02-28T19:07:52.751Z,40.1
2017-02-28T19:10:25.664Z,40
2017-02-28T19:12:58.565Z,39.9
2017-02-28T19:15:31.041Z,39.9
2017-02-28T19:18:03.550Z,39.9
2017-02-28T19:20:36.064Z,39.9
2017-02-28T19:23:08.966Z,40.2
2017-02-28T19:25:41.464Z,40.4
2017-02-28T19:28:13.955Z,40.4
2017-02-28T19:30:46.459Z,40.5
2017-02-28T19:33:18.949Z,40.6
2017-02-28T19:35:51.877Z,40.7
2017-02-28T19:38:24.363Z,40.7
2017-02-28T19:40:57.307Z,40.9
2017-02-28T19:43:29.797Z,40.9
2017-02-28T19:46:02.283Z,41.1
2017-02-28T19:48:34.795Z,41.1
2017-02-28T19:51:07.263Z,41.1
2017-02-28T19:53:40.213Z,41.1
2017-02-28T19:56:12.728Z,41.2
2017-02-28T19:58:45.221Z,41.2
2017-02-28T20:01:17.732Z,41.3
2017-02-28T20:03:50.212Z,41.3
2017-02-28T20:06:22.729Z,41.3
2017-02-28T20:08:55.233Z,41.4
2017-02-28T20:11:27.736Z,41.4
2017-02-28T20:14:00.229Z,41.5
2017-02-28T20:16:33.146Z,41.5
2017-02-28T20:19:05.683Z,41.5
2017-02-28T20:21:38.176Z,41.5
2017-02-28T20:24:10.678Z,41.6
2017-02-28T20:26:43.154Z,41.6
2017-02-28T20:29:15.650Z,41.7
2017-02-28T20:31:48.128Z,41.7
2017-02-28T20:34:20.618Z,41.7
2017-02-28T20:36:53.556Z,41.8
2017-02-28T20:39:26.063Z,41.7
2017-02-28T20:41:59.019Z,41.8
2017-02-28T20:44:31.505Z,41.8
2017-02-28T20:47:04.420Z,41.8
2017-02-28T20:49:36.954Z,41.8
2017-02-28T20:52:10.283Z,41.8
2017-02-28T20:54:42.764Z,41.9
2017-02-28T20:57:15.248Z,41.9
2017-02-28T20:59:47.746Z,41.9
2017-02-28T21:02:20.251Z,41.9
2017-02-28T21:04:52.760Z,42
2017-02-28T21:07:25.670Z,42
2017-02-28T21:09:58.184Z,42.1
2017-02-28T21:12:30.690Z,42.1
2017-02-28T21:15:03.626Z,42.2
2017-02-28T21:17:36.564Z,42.4
2017-02-28T21:20:09.053Z,42.4
2017-02-28T21:22:41.573Z,42.5
2017-02-28T21:25:14.066Z,42.5
2017-02-28T21:27:46.558Z,42.4
2017-02-28T21:30:19.245Z,42.4
2017-02-28T21:32:51.745Z,42.5
2017-02-28T21:35:25.107Z,42.5
2017-02-28T21:37:58.019Z,42.5
2017-02-28T21:40:30.938Z,42.6
2017-02-28T21:43:03.894Z,42.6
2017-02-28T21:45:36.383Z,42.6
2017-02-28T21:48:09.316Z,42.6
2017-02-28T21:50:41.792Z,42.6
2017-02-28T21:53:14.276Z,42.7
2017-02-28T21:55:46.759Z,42.7
2017-02-28T21:58:19.259Z,42.8
2017-02-28T22:00:51.771Z,42.8
2017-02-28T22:03:24.305Z,42.9
2017-02-28T22:05:56.987Z,42.9
2017-02-28T22:08:29.685Z,42.9
2017-02-28T22:11:02.192Z,42.9
2017-02-28T22:13:34.682Z,42.9
2017-02-28T22:16:07.620Z,42.9
2017-02-28T22:18:40.113Z,42.8
2017-02-28T22:21:12.623Z,42.8
2017-02-28T22:23:45.128Z,42.8
2017-02-28T22:26:17.618Z,42.8
2017-02-28T22:28:50.103Z,42.8
2017-02-28T22:31:22.613Z,42.9
2017-02-28T22:33:55.098Z,42.9
2017-02-28T22:36:27.640Z,42.9
2017-02-28T22:39:00.129Z,42.9
2017-02-28T22:41:32.645Z,43
2017-02-28T22:44:05.147Z,43
2017-02-28T22:46:37.706Z,43.2
2017-02-28T22:49:10.813Z,43.3
2017-02-28T22:51:43.316Z,43.4
2017-02-28T22:54:15.805Z,43.3
2017-02-28T22:56:48.730Z,43.3
2017-02-28T22:59:21.215Z,43.3
2017-02-28T23:01:54.101Z,43.2
2017-02-28T23:04:26.624Z,43.2
2017-02-28T23:06:59.106Z,43.3
2017-02-28T23:09:31.623Z,43.2
2017-02-28T23:12:04.123Z,43.3
2017-02-28T23:14:36.813Z,43.3
2017-02-28T23:17:09.725Z,43.2
2017-02-28T23:19:42.635Z,43.4
2017-02-28T23:22:15.158Z,43.6
2017-02-28T23:24:47.692Z,43.7
2017-02-28T23:27:20.275Z,43.8
2017-02-28T23:29:53.430Z,43.9
2017-02-28T23:32:26.353Z,43.9
2017-02-28T23:34:58.894Z,43.9
2017-02-28T23:37:31.413Z,44
2017-02-28T23:40:04.306Z,44
2017-02-28T23:42:36.819Z,44
2017-02-28T23:45:09.377Z,44
2017-02-28T23:47:43.069Z,44
2017-02-28T23:50:15.561Z,44.1
2017-02-28T23:52:48.260Z,44.1
2017-02-28T23:55:21.124Z,44
2017-02-28T23:57:53.757Z,44.2
